sensor_id;sensor_type;location;lat;lon;timestamp;P1;durP1;ratioP1;P2;durP2;ratioP2
56457;SDS011;42360;42.918;12.366;2022-10-26T00:00:40;15.05;;;7.70;;
56457;SDS011;42360;42.918;12.366;2022-10-26T00:03:05;15.68;;;6.68;;
56457;SDS011;42360;42.918;12.366;2022-10-26T00:05:31;11.45;;;6.45;;
56457;SDS011;42360;42.918;12.366;2022-10-26T00:07:58;14.40;;;7.45;;
56457;SDS011;42360;42.918;12.366;2022-10-26T00:10:24;15.50;;;6.75;;
56457;SDS011;42360;42.918;12.366;2022-10-26T00:12:50;11.90;;;7.03;;
56457;SDS011;42360;42.918;12.366;2022-10-26T00:15:16;10.90;;;7.30;;
56457;SDS011;42360;42.918;12.366;2022-10-26T00:17:43;17.92;;;7.30;;
56457;SDS011;42360;42.918;12.366;2022-10-26T00:20:08;16.70;;;6.88;;
56457;SDS011;42360;42.918;12.366;2022-10-26T00:22:34;14.57;;;6.53;;
56457;SDS011;42360;42.918;12.366;2022-10-26T00:25:00;13.55;;;6.75;;
56457;SDS011;42360;42.918;12.366;2022-10-26T00:27:25;13.25;;;7.18;;
56457;SDS011;42360;42.918;12.366;2022-10-26T00:29:51;13.88;;;6.57;;
56457;SDS011;42360;42.918;12.366;2022-10-26T00:32:17;13.85;;;7.05;;
56457;SDS011;42360;42.918;12.366;2022-10-26T00:34:42;9.93;;;6.22;;
56457;SDS011;42360;42.918;12.366;2022-10-26T00:37:08;17.92;;;6.85;;
56457;SDS011;42360;42.918;12.366;2022-10-26T00:39:34;15.25;;;6.40;;
56457;SDS011;42360;42.918;12.366;2022-10-26T00:42:00;18.00;;;7.55;;
56457;SDS011;42360;42.918;12.366;2022-10-26T00:50:00;20.50;;;9.85;;
56457;SDS011;42360;42.918;12.366;2022-10-26T00:52:28;12.80;;;6.40;;
56457;SDS011;42360;42.918;12.366;2022-10-26T00:54:54;17.65;;;7.55;;
56457;SDS011;42360;42.918;12.366;2022-10-26T00:57:20;15.23;;;7.07;;
56457;SDS011;42360;42.918;12.366;2022-10-26T00:59:46;11.75;;;6.93;;
56457;SDS011;42360;42.918;12.366;2022-10-26T01:02:12;19.60;;;7.43;;
56457;SDS011;42360;42.918;12.366;2022-10-26T01:04:38;12.73;;;6.95;;
56457;SDS011;42360;42.918;12.366;2022-10-26T01:07:04;15.45;;;8.02;;
56457;SDS011;42360;42.918;12.366;2022-10-26T01:09:30;13.95;;;6.30;;
56457;SDS011;42360;42.918;12.366;2022-10-26T01:11:56;13.93;;;6.85;;
56457;SDS011;42360;42.918;12.366;2022-10-26T01:14:22;12.95;;;7.57;;
56457;SDS011;42360;42.918;12.366;2022-10-26T01:17:04;14.38;;;6.30;;
56457;SDS011;42360;42.918;12.366;2022-10-26T01:20:06;16.13;;;7.30;;
56457;SDS011;42360;42.918;12.366;2022-10-26T01:22:58;13.95;;;7.78;;
56457;SDS011;42360;42.918;12.366;2022-10-26T01:28:23;17.25;;;8.10;;
56457;SDS011;42360;42.918;12.366;2022-10-26T01:30:55;15.20;;;6.97;;
56457;SDS011;42360;42.918;12.366;2022-10-26T01:33:30;12.82;;;7.00;;
56457;SDS011;42360;42.918;12.366;2022-10-26T01:42:04;17.95;;;9.05;;
56457;SDS011;42360;42.918;12.366;2022-10-26T01:44:25;19.27;;;8.18;;
56457;SDS011;42360;42.918;12.366;2022-10-26T01:46:53;15.40;;;7.10;;
56457;SDS011;42360;42.918;12.366;2022-10-26T01:49:20;17.70;;;7.30;;
56457;SDS011;42360;42.918;12.366;2022-10-26T01:51:48;16.58;;;7.38;;
56457;SDS011;42360;42.918;12.366;2022-10-26T01:54:14;16.48;;;7.80;;
56457;SDS011;42360;42.918;12.366;2022-10-26T01:56:41;14.52;;;6.97;;
56457;SDS011;42360;42.918;12.366;2022-10-26T02:12:13;15.60;;;6.90;;
56457;SDS011;42360;42.918;12.366;2022-10-26T02:14:49;14.77;;;7.85;;
56457;SDS011;42360;42.918;12.366;2022-10-26T02:19:50;14.05;;;7.40;;
56457;SDS011;42360;42.918;12.366;2022-10-26T02:22:32;17.63;;;8.57;;
56457;SDS011;42360;42.918;12.366;2022-10-26T02:25:06;21.95;;;8.57;;
56457;SDS011;42360;42.918;12.366;2022-10-26T02:27:34;19.02;;;7.78;;
56457;SDS011;42360;42.918;12.366;2022-10-26T02:30:03;16.48;;;7.25;;
56457;SDS011;42360;42.918;12.366;2022-10-26T02:32:30;16.60;;;7.35;;
56457;SDS011;42360;42.918;12.366;2022-10-26T02:34:59;16.92;;;8.35;;
56457;SDS011;42360;42.918;12.366;2022-10-26T02:37:27;15.35;;;7.63;;
56457;SDS011;42360;42.918;12.366;2022-10-26T02:39:53;15.77;;;7.65;;
56457;SDS011;42360;42.918;12.366;2022-10-26T02:42:19;13.30;;;6.70;;
56457;SDS011;42360;42.918;12.366;2022-10-26T02:44:48;12.25;;;6.85;;
56457;SDS011;42360;42.918;12.366;2022-10-26T02:47:16;15.48;;;7.95;;
56457;SDS011;42360;42.918;12.366;2022-10-26T02:49:42;14.55;;;7.78;;
56457;SDS011;42360;42.918;12.366;2022-10-26T02:52:10;11.23;;;6.55;;
56457;SDS011;42360;42.918;12.366;2022-10-26T02:54:59;13.65;;;6.57;;
56457;SDS011;42360;42.918;12.366;2022-10-26T02:57:39;16.20;;;7.13;;
56457;SDS011;42360;42.918;12.366;2022-10-26T03:00:20;16.10;;;7.95;;
56457;SDS011;42360;42.918;12.366;2022-10-26T03:02:50;12.70;;;8.35;;
56457;SDS011;42360;42.918;12.366;2022-10-26T03:05:28;17.02;;;7.10;;
56457;SDS011;42360;42.918;12.366;2022-10-26T03:07:56;12.75;;;7.85;;
56457;SDS011;42360;42.918;12.366;2022-10-26T03:10:22;14.25;;;7.18;;
56457;SDS011;42360;42.918;12.366;2022-10-26T03:12:48;14.32;;;7.07;;
56457;SDS011;42360;42.918;12.366;2022-10-26T03:15:14;16.48;;;6.82;;
56457;SDS011;42360;42.918;12.366;2022-10-26T03:17:40;11.80;;;6.68;;
56457;SDS011;42360;42.918;12.366;2022-10-26T03:20:06;12.23;;;7.13;;
56457;SDS011;42360;42.918;12.366;2022-10-26T03:22:32;13.02;;;7.53;;
56457;SDS011;42360;42.918;12.366;2022-10-26T03:24:58;16.08;;;7.88;;
56457;SDS011;42360;42.918;12.366;2022-10-26T03:27:23;23.90;;;8.20;;
56457;SDS011;42360;42.918;12.366;2022-10-26T03:29:51;13.93;;;7.38;;
56457;SDS011;42360;42.918;12.366;2022-10-26T03:32:16;14.20;;;6.93;;
56457;SDS011;42360;42.918;12.366;2022-10-26T03:34:42;14.45;;;7.63;;
56457;SDS011;42360;42.918;12.366;2022-10-26T03:37:07;12.30;;;6.85;;
56457;SDS011;42360;42.918;12.366;2022-10-26T03:39:34;15.98;;;6.93;;
56457;SDS011;42360;42.918;12.366;2022-10-26T03:41:59;9.50;;;6.75;;
56457;SDS011;42360;42.918;12.366;2022-10-26T03:44:25;16.45;;;7.43;;
56457;SDS011;42360;42.918;12.366;2022-10-26T03:46:51;12.60;;;7.53;;
56457;SDS011;42360;42.918;12.366;2022-10-26T03:49:16;11.40;;;6.90;;
56457;SDS011;42360;42.918;12.366;2022-10-26T03:51:42;16.20;;;8.40;;
56457;SDS011;42360;42.918;12.366;2022-10-26T03:54:07;13.70;;;6.93;;
56457;SDS011;42360;42.918;12.366;2022-10-26T03:56:33;15.93;;;8.07;;
56457;SDS011;42360;42.918;12.366;2022-10-26T03:58:58;11.60;;;7.40;;
56457;SDS011;42360;42.918;12.366;2022-10-26T04:01:24;14.43;;;7.97;;
56457;SDS011;42360;42.918;12.366;2022-10-26T04:03:50;15.18;;;8.20;;
56457;SDS011;42360;42.918;12.366;2022-10-26T04:06:15;15.57;;;7.40;;
56457;SDS011;42360;42.918;12.366;2022-10-26T04:08:41;20.65;;;8.07;;
56457;SDS011;42360;42.918;12.366;2022-10-26T04:11:06;19.50;;;8.57;;
56457;SDS011;42360;42.918;12.366;2022-10-26T04:13:32;20.23;;;8.07;;
56457;SDS011;42360;42.918;12.366;2022-10-26T04:15:58;18.73;;;8.13;;
56457;SDS011;42360;42.918;12.366;2022-10-26T04:18:24;14.45;;;7.35;;
56457;SDS011;42360;42.918;12.366;2022-10-26T04:20:49;21.17;;;8.55;;
56457;SDS011;42360;42.918;12.366;2022-10-26T04:23:15;18.85;;;9.02;;
56457;SDS011;42360;42.918;12.366;2022-10-26T04:25:42;19.30;;;8.00;;
56457;SDS011;42360;42.918;12.366;2022-10-26T04:28:08;15.88;;;7.13;;
56457;SDS011;42360;42.918;12.366;2022-10-26T04:30:35;18.80;;;7.97;;
56457;SDS011;42360;42.918;12.366;2022-10-26T04:33:01;11.32;;;7.07;;
56457;SDS011;42360;42.918;12.366;2022-10-26T04:35:27;18.27;;;7.97;;
56457;SDS011;42360;42.918;12.366;2022-10-26T04:38:00;12.30;;;6.75;;
56457;SDS011;42360;42.918;12.366;2022-10-26T04:40:27;15.10;;;7.35;;
56457;SDS011;42360;42.918;12.366;2022-10-26T04:42:53;14.13;;;6.88;;
56457;SDS011;42360;42.918;12.366;2022-10-26T04:45:19;17.45;;;7.78;;
56457;SDS011;42360;42.918;12.366;2022-10-26T04:47:45;18.00;;;7.95;;
56457;SDS011;42360;42.918;12.366;2022-10-26T04:50:11;14.52;;;7.47;;
56457;SDS011;42360;42.918;12.366;2022-10-26T04:52:37;10.63;;;7.45;;
56457;SDS011;42360;42.918;12.366;2022-10-26T04:55:04;14.45;;;7.57;;
56457;SDS011;42360;42.918;12.366;2022-10-26T04:57:30;12.55;;;7.38;;
56457;SDS011;42360;42.918;12.366;2022-10-26T04:59:57;15.35;;;7.32;;
56457;SDS011;42360;42.918;12.366;2022-10-26T05:02:23;17.45;;;7.95;;
56457;SDS011;42360;42.918;12.366;2022-10-26T05:04:48;14.77;;;8.20;;
56457;SDS011;42360;42.918;12.366;2022-10-26T05:07:14;15.57;;;7.00;;
56457;SDS011;42360;42.918;12.366;2022-10-26T05:09:40;13.52;;;7.40;;
56457;SDS011;42360;42.918;12.366;2022-10-26T05:12:05;12.57;;;7.78;;
56457;SDS011;42360;42.918;12.366;2022-10-26T05:14:31;10.48;;;7.53;;
56457;SDS011;42360;42.918;12.366;2022-10-26T05:16:57;13.18;;;7.68;;
56457;SDS011;42360;42.918;12.366;2022-10-26T05:19:22;9.90;;;6.53;;
56457;SDS011;42360;42.918;12.366;2022-10-26T05:21:48;11.95;;;7.85;;
56457;SDS011;42360;42.918;12.366;2022-10-26T05:24:17;16.63;;;7.78;;
56457;SDS011;42360;42.918;12.366;2022-10-26T05:26:43;16.10;;;7.22;;
56457;SDS011;42360;42.918;12.366;2022-10-26T05:29:08;31.17;;;17.90;;
56457;SDS011;42360;42.918;12.366;2022-10-26T05:31:34;19.65;;;11.75;;
56457;SDS011;42360;42.918;12.366;2022-10-26T05:33:59;19.25;;;9.43;;
56457;SDS011;42360;42.918;12.366;2022-10-26T05:36:25;14.50;;;8.07;;
56457;SDS011;42360;42.918;12.366;2022-10-26T05:38:51;15.95;;;9.13;;
56457;SDS011;42360;42.918;12.366;2022-10-26T05:41:16;18.85;;;9.10;;
56457;SDS011;42360;42.918;12.366;2022-10-26T05:43:42;17.70;;;7.93;;
56457;SDS011;42360;42.918;12.366;2022-10-26T05:46:07;18.65;;;9.10;;
56457;SDS011;42360;42.918;12.366;2022-10-26T05:48:33;18.67;;;9.02;;
56457;SDS011;42360;42.918;12.366;2022-10-26T05:50:59;26.33;;;11.32;;
56457;SDS011;42360;42.918;12.366;2022-10-26T05:53:25;25.20;;;11.20;;
56457;SDS011;42360;42.918;12.366;2022-10-26T05:55:52;26.33;;;11.90;;
56457;SDS011;42360;42.918;12.366;2022-10-26T05:58:19;23.63;;;11.50;;
56457;SDS011;42360;42.918;12.366;2022-10-26T06:06:39;20.45;;;10.07;;
56457;SDS011;42360;42.918;12.366;2022-10-26T06:09:09;19.25;;;9.77;;
56457;SDS011;42360;42.918;12.366;2022-10-26T06:11:35;25.08;;;13.15;;
56457;SDS011;42360;42.918;12.366;2022-10-26T06:14:01;26.63;;;16.15;;
56457;SDS011;42360;42.918;12.366;2022-10-26T06:16:39;25.35;;;14.80;;
56457;SDS011;42360;42.918;12.366;2022-10-26T06:22:33;14.55;;;7.22;;
56457;SDS011;42360;42.918;12.366;2022-10-26T06:27:55;13.85;;;7.25;;
56457;SDS011;42360;42.918;12.366;2022-10-26T06:30:41;14.65;;;7.63;;
56457;SDS011;42360;42.918;12.366;2022-10-26T06:33:08;13.35;;;7.35;;
56457;SDS011;42360;42.918;12.366;2022-10-26T06:35:36;14.75;;;7.15;;
56457;SDS011;42360;42.918;12.366;2022-10-26T06:38:08;10.73;;;7.15;;
56457;SDS011;42360;42.918;12.366;2022-10-26T06:40:36;13.95;;;7.53;;
56457;SDS011;42360;42.918;12.366;2022-10-26T06:43:08;16.38;;;8.43;;
56457;SDS011;42360;42.918;12.366;2022-10-26T06:45:38;14.93;;;7.85;;
56457;SDS011;42360;42.918;12.366;2022-10-26T06:48:07;14.50;;;7.18;;
56457;SDS011;42360;42.918;12.366;2022-10-26T06:50:39;14.80;;;7.35;;
56457;SDS011;42360;42.918;12.366;2022-10-26T06:55:49;14.98;;;7.53;;
56457;SDS011;42360;42.918;12.366;2022-10-26T06:58:16;16.30;;;9.45;;
56457;SDS011;42360;42.918;12.366;2022-10-26T07:00:43;13.93;;;7.75;;
56457;SDS011;42360;42.918;12.366;2022-10-26T07:03:10;10.43;;;7.20;;
56457;SDS011;42360;42.918;12.366;2022-10-26T07:05:36;12.82;;;7.57;;
56457;SDS011;42360;42.918;12.366;2022-10-26T07:08:01;16.05;;;6.75;;
56457;SDS011;42360;42.918;12.366;2022-10-26T07:10:27;11.55;;;7.13;;
56457;SDS011;42360;42.918;12.366;2022-10-26T07:12:53;11.40;;;6.75;;
56457;SDS011;42360;42.918;12.366;2022-10-26T07:15:18;11.70;;;6.15;;
56457;SDS011;42360;42.918;12.366;2022-10-26T07:17:44;10.32;;;6.47;;
56457;SDS011;42360;42.918;12.366;2022-10-26T07:20:11;11.50;;;5.85;;
56457;SDS011;42360;42.918;12.366;2022-10-26T07:22:39;11.40;;;5.93;;
56457;SDS011;42360;42.918;12.366;2022-10-26T07:25:10;9.57;;;6.10;;
56457;SDS011;42360;42.918;12.366;2022-10-26T07:27:41;8.98;;;6.45;;
56457;SDS011;42360;42.918;12.366;2022-10-26T07:30:07;9.82;;;6.30;;
56457;SDS011;42360;42.918;12.366;2022-10-26T07:32:33;11.50;;;7.40;;
56457;SDS011;42360;42.918;12.366;2022-10-26T07:34:58;10.85;;;6.60;;
56457;SDS011;42360;42.918;12.366;2022-10-26T07:37:24;10.85;;;6.80;;
56457;SDS011;42360;42.918;12.366;2022-10-26T07:39:50;10.25;;;6.18;;
56457;SDS011;42360;42.918;12.366;2022-10-26T07:42:15;10.70;;;6.63;;
56457;SDS011;42360;42.918;12.366;2022-10-26T07:44:41;9.82;;;6.60;;
56457;SDS011;42360;42.918;12.366;2022-10-26T07:47:06;8.93;;;6.32;;
56457;SDS011;42360;42.918;12.366;2022-10-26T07:49:32;11.73;;;6.10;;
56457;SDS011;42360;42.918;12.366;2022-10-26T07:51:58;13.25;;;6.88;;
56457;SDS011;42360;42.918;12.366;2022-10-26T07:54:24;9.27;;;6.97;;
56457;SDS011;42360;42.918;12.366;2022-10-26T07:56:49;11.70;;;6.93;;
56457;SDS011;42360;42.918;12.366;2022-10-26T07:59:15;12.77;;;6.53;;
56457;SDS011;42360;42.918;12.366;2022-10-26T08:01:43;11.50;;;5.97;;
56457;SDS011;42360;42.918;12.366;2022-10-26T08:04:09;9.02;;;6.03;;
56457;SDS011;42360;42.918;12.366;2022-10-26T08:06:35;13.45;;;6.43;;
56457;SDS011;42360;42.918;12.366;2022-10-26T08:09:00;10.02;;;6.25;;
56457;SDS011;42360;42.918;12.366;2022-10-26T08:11:26;10.70;;;6.43;;
56457;SDS011;42360;42.918;12.366;2022-10-26T08:13:52;10.02;;;6.97;;
56457;SDS011;42360;42.918;12.366;2022-10-26T08:16:18;11.98;;;6.13;;
56457;SDS011;42360;42.918;12.366;2022-10-26T08:18:46;10.45;;;6.47;;
56457;SDS011;42360;42.918;12.366;2022-10-26T08:21:12;10.00;;;6.13;;
56457;SDS011;42360;42.918;12.366;2022-10-26T08:23:38;10.57;;;6.25;;
56457;SDS011;42360;42.918;12.366;2022-10-26T08:26:04;10.25;;;6.07;;
56457;SDS011;42360;42.918;12.366;2022-10-26T08:28:31;14.18;;;6.57;;
56457;SDS011;42360;42.918;12.366;2022-10-26T08:30:57;10.52;;;5.63;;
56457;SDS011;42360;42.918;12.366;2022-10-26T08:33:23;12.02;;;6.35;;
56457;SDS011;42360;42.918;12.366;2022-10-26T08:35:59;9.57;;;5.72;;
56457;SDS011;42360;42.918;12.366;2022-10-26T08:38:26;11.55;;;6.32;;
56457;SDS011;42360;42.918;12.366;2022-10-26T08:40:52;11.95;;;6.93;;
56457;SDS011;42360;42.918;12.366;2022-10-26T08:43:29;9.90;;;6.65;;
56457;SDS011;42360;42.918;12.366;2022-10-26T08:48:28;10.35;;;6.18;;
56457;SDS011;42360;42.918;12.366;2022-10-26T08:51:01;11.13;;;7.68;;
56457;SDS011;42360;42.918;12.366;2022-10-26T08:53:48;18.92;;;11.65;;
56457;SDS011;42360;42.918;12.366;2022-10-26T08:56:22;10.55;;;7.07;;
56457;SDS011;42360;42.918;12.366;2022-10-26T09:01:39;14.57;;;6.10;;
56457;SDS011;42360;42.918;12.366;2022-10-26T09:04:08;9.40;;;6.13;;
56457;SDS011;42360;42.918;12.366;2022-10-26T09:15:07;9.98;;;5.65;;
56457;SDS011;42360;42.918;12.366;2022-10-26T09:17:40;13.90;;;6.32;;
56457;SDS011;42360;42.918;12.366;2022-10-26T09:25:59;12.43;;;6.25;;
56457;SDS011;42360;42.918;12.366;2022-10-26T09:28:26;12.23;;;5.38;;
56457;SDS011;42360;42.918;12.366;2022-10-26T09:31:01;10.77;;;6.10;;
56457;SDS011;42360;42.918;12.366;2022-10-26T09:33:28;25.65;;;13.85;;
56457;SDS011;42360;42.918;12.366;2022-10-26T09:41:50;14.93;;;7.15;;
56457;SDS011;42360;42.918;12.366;2022-10-26T09:44:35;16.00;;;8.60;;
56457;SDS011;42360;42.918;12.366;2022-10-26T09:47:05;14.57;;;6.57;;
56457;SDS011;42360;42.918;12.366;2022-10-26T09:52:54;13.82;;;6.63;;
56457;SDS011;42360;42.918;12.366;2022-10-26T09:55:19;12.02;;;6.78;;
56457;SDS011;42360;42.918;12.366;2022-10-26T09:57:47;20.00;;;11.80;;
56457;SDS011;42360;42.918;12.366;2022-10-26T10:00:17;14.65;;;6.88;;
56457;SDS011;42360;42.918;12.366;2022-10-26T10:03:15;11.55;;;5.95;;
56457;SDS011;42360;42.918;12.366;2022-10-26T10:05:40;13.15;;;6.63;;
56457;SDS011;42360;42.918;12.366;2022-10-26T10:08:12;17.98;;;7.47;;
56457;SDS011;42360;42.918;12.366;2022-10-26T10:10:56;15.23;;;7.40;;
56457;SDS011;42360;42.918;12.366;2022-10-26T10:13:32;14.82;;;6.55;;
56457;SDS011;42360;42.918;12.366;2022-10-26T10:16:05;15.00;;;7.88;;
56457;SDS011;42360;42.918;12.366;2022-10-26T10:18:35;14.27;;;6.63;;
56457;SDS011;42360;42.918;12.366;2022-10-26T10:21:02;19.13;;;6.65;;
56457;SDS011;42360;42.918;12.366;2022-10-26T10:23:34;12.48;;;5.97;;
56457;SDS011;42360;42.918;12.366;2022-10-26T10:26:11;14.75;;;5.35;;
56457;SDS011;42360;42.918;12.366;2022-10-26T10:28:37;13.13;;;5.38;;
56457;SDS011;42360;42.918;12.366;2022-10-26T10:31:14;12.75;;;5.10;;
56457;SDS011;42360;42.918;12.366;2022-10-26T10:36:17;18.40;;;5.90;;
56457;SDS011;42360;42.918;12.366;2022-10-26T10:38:45;13.20;;;4.97;;
56457;SDS011;42360;42.918;12.366;2022-10-26T10:41:32;11.77;;;4.97;;
56457;SDS011;42360;42.918;12.366;2022-10-26T10:46:49;17.95;;;5.72;;
56457;SDS011;42360;42.918;12.366;2022-10-26T10:49:24;16.58;;;5.05;;
56457;SDS011;42360;42.918;12.366;2022-10-26T10:51:51;14.30;;;5.95;;
56457;SDS011;42360;42.918;12.366;2022-10-26T10:54:22;17.60;;;7.13;;
56457;SDS011;42360;42.918;12.366;2022-10-26T11:02:12;14.60;;;5.22;;
56457;SDS011;42360;42.918;12.366;2022-10-26T11:05:10;20.92;;;6.15;;
56457;SDS011;42360;42.918;12.366;2022-10-26T11:08:02;19.33;;;6.63;;
56457;SDS011;42360;42.918;12.366;2022-10-26T11:10:34;23.30;;;8.23;;
56457;SDS011;42360;42.918;12.366;2022-10-26T11:13:03;14.98;;;7.25;;
56457;SDS011;42360;42.918;12.366;2022-10-26T11:15:32;19.00;;;6.07;;
56457;SDS011;42360;42.918;12.366;2022-10-26T11:21:00;20.23;;;7.68;;
56457;SDS011;42360;42.918;12.366;2022-10-26T11:23:38;18.05;;;7.07;;
56457;SDS011;42360;42.918;12.366;2022-10-26T11:26:12;15.95;;;5.60;;
56457;SDS011;42360;42.918;12.366;2022-10-26T11:31:09;19.38;;;6.18;;
56457;SDS011;42360;42.918;12.366;2022-10-26T11:33:43;15.77;;;5.07;;
56457;SDS011;42360;42.918;12.366;2022-10-26T11:36:16;19.42;;;6.53;;
56457;SDS011;42360;42.918;12.366;2022-10-26T11:38:48;20.67;;;6.03;;
56457;SDS011;42360;42.918;12.366;2022-10-26T11:41:36;13.73;;;5.15;;
56457;SDS011;42360;42.918;12.366;2022-10-26T11:46:41;16.52;;;6.07;;
56457;SDS011;42360;42.918;12.366;2022-10-26T11:51:42;18.48;;;6.80;;
56457;SDS011;42360;42.918;12.366;2022-10-26T11:54:22;13.90;;;4.38;;
56457;SDS011;42360;42.918;12.366;2022-10-26T11:56:53;19.77;;;5.93;;
56457;SDS011;42360;42.918;12.366;2022-10-26T11:59:20;24.58;;;5.05;;
56457;SDS011;42360;42.918;12.366;2022-10-26T12:01:53;13.50;;;5.13;;
56457;SDS011;42360;42.918;12.366;2022-10-26T12:04:43;22.33;;;8.10;;
56457;SDS011;42360;42.918;12.366;2022-10-26T12:07:19;23.92;;;9.73;;
56457;SDS011;42360;42.918;12.366;2022-10-26T12:09:47;17.67;;;6.68;;
56457;SDS011;42360;42.918;12.366;2022-10-26T12:12:16;21.50;;;5.28;;
56457;SDS011;42360;42.918;12.366;2022-10-26T12:14:55;14.57;;;4.20;;
56457;SDS011;42360;42.918;12.366;2022-10-26T12:18:25;17.40;;;4.40;;
56457;SDS011;42360;42.918;12.366;2022-10-26T12:23:18;27.92;;;6.68;;
56457;SDS011;42360;42.918;12.366;2022-10-26T12:25:44;24.25;;;5.53;;
56457;SDS011;42360;42.918;12.366;2022-10-26T12:34:01;25.60;;;4.82;;
56457;SDS011;42360;42.918;12.366;2022-10-26T12:39:31;41.08;;;14.27;;
56457;SDS011;42360;42.918;12.366;2022-10-26T12:42:08;27.50;;;10.65;;
56457;SDS011;42360;42.918;12.366;2022-10-26T12:52:56;18.15;;;3.95;;
56457;SDS011;42360;42.918;12.366;2022-10-26T12:55:41;15.25;;;4.10;;
56457;SDS011;42360;42.918;12.366;2022-10-26T12:58:23;17.48;;;4.65;;
56457;SDS011;42360;42.918;12.366;2022-10-26T13:08:57;15.27;;;4.18;;
56457;SDS011;42360;42.918;12.366;2022-10-26T13:11:30;16.60;;;4.53;;
56457;SDS011;42360;42.918;12.366;2022-10-26T13:13:57;16.63;;;4.38;;
56457;SDS011;42360;42.918;12.366;2022-10-26T13:16:26;16.27;;;4.28;;
56457;SDS011;42360;42.918;12.366;2022-10-26T13:18:53;21.23;;;4.15;;
56457;SDS011;42360;42.918;12.366;2022-10-26T13:21:19;11.80;;;4.32;;
56457;SDS011;42360;42.918;12.366;2022-10-26T13:23:47;23.60;;;4.70;;
56457;SDS011;42360;42.918;12.366;2022-10-26T13:26:27;23.40;;;8.38;;
56457;SDS011;42360;42.918;12.366;2022-10-26T13:28:55;22.92;;;6.32;;
56457;SDS011;42360;42.918;12.366;2022-10-26T13:33:56;28.55;;;7.40;;
56457;SDS011;42360;42.918;12.366;2022-10-26T13:36:31;14.98;;;5.03;;
56457;SDS011;42360;42.918;12.366;2022-10-26T13:39:03;17.40;;;3.47;;
56457;SDS011;42360;42.918;12.366;2022-10-26T13:41:34;14.23;;;3.95;;
56457;SDS011;42360;42.918;12.366;2022-10-26T13:44:02;15.95;;;4.03;;
56457;SDS011;42360;42.918;12.366;2022-10-26T13:46:30;21.27;;;5.07;;
56457;SDS011;42360;42.918;12.366;2022-10-26T13:49:02;13.82;;;3.90;;
56457;SDS011;42360;42.918;12.366;2022-10-26T13:51:39;14.25;;;4.47;;
56457;SDS011;42360;42.918;12.366;2022-10-26T13:54:19;17.90;;;4.28;;
56457;SDS011;42360;42.918;12.366;2022-10-26T13:57:14;23.08;;;4.70;;
56457;SDS011;42360;42.918;12.366;2022-10-26T13:59:44;17.02;;;3.80;;
56457;SDS011;42360;42.918;12.366;2022-10-26T14:02:26;16.73;;;3.97;;
56457;SDS011;42360;42.918;12.366;2022-10-26T14:05:01;17.38;;;4.03;;
56457;SDS011;42360;42.918;12.366;2022-10-26T14:07:35;17.15;;;4.65;;
56457;SDS011;42360;42.918;12.366;2022-10-26T14:10:05;12.82;;;4.32;;
56457;SDS011;42360;42.918;12.366;2022-10-26T14:12:31;19.40;;;4.47;;
56457;SDS011;42360;42.918;12.366;2022-10-26T14:15:02;19.13;;;4.88;;
56457;SDS011;42360;42.918;12.366;2022-10-26T14:17:31;11.07;;;3.28;;
56457;SDS011;42360;42.918;12.366;2022-10-26T14:19:56;20.15;;;4.90;;
56457;SDS011;42360;42.918;12.366;2022-10-26T14:22:25;14.02;;;4.25;;
56457;SDS011;42360;42.918;12.366;2022-10-26T14:24:56;20.63;;;4.38;;
56457;SDS011;42360;42.918;12.366;2022-10-26T14:27:24;17.98;;;4.07;;
56457;SDS011;42360;42.918;12.366;2022-10-26T14:29:52;18.13;;;4.72;;
56457;SDS011;42360;42.918;12.366;2022-10-26T14:32:28;12.13;;;3.17;;
56457;SDS011;42360;42.918;12.366;2022-10-26T14:37:39;20.10;;;4.57;;
56457;SDS011;42360;42.918;12.366;2022-10-26T14:40:16;11.85;;;4.22;;
56457;SDS011;42360;42.918;12.366;2022-10-26T14:42:43;15.13;;;4.18;;
56457;SDS011;42360;42.918;12.366;2022-10-26T14:45:21;15.52;;;4.40;;
56457;SDS011;42360;42.918;12.366;2022-10-26T14:47:48;13.73;;;3.88;;
56457;SDS011;42360;42.918;12.366;2022-10-26T14:50:21;12.55;;;4.00;;
56457;SDS011;42360;42.918;12.366;2022-10-26T14:52:54;16.45;;;4.30;;
56457;SDS011;42360;42.918;12.366;2022-10-26T14:55:22;20.48;;;4.57;;
56457;SDS011;42360;42.918;12.366;2022-10-26T14:57:50;26.10;;;5.57;;
56457;SDS011;42360;42.918;12.366;2022-10-26T15:00:18;14.02;;;3.65;;
56457;SDS011;42360;42.918;12.366;2022-10-26T15:02:46;24.58;;;5.75;;
56457;SDS011;42360;42.918;12.366;2022-10-26T15:07:56;14.93;;;3.83;;
56457;SDS011;42360;42.918;12.366;2022-10-26T15:13:24;18.98;;;4.43;;
56457;SDS011;42360;42.918;12.366;2022-10-26T15:15:55;21.55;;;4.28;;
56457;SDS011;42360;42.918;12.366;2022-10-26T15:18:22;24.83;;;5.90;;
56457;SDS011;42360;42.918;12.366;2022-10-26T15:20:50;19.23;;;6.32;;
56457;SDS011;42360;42.918;12.366;2022-10-26T15:23:18;13.57;;;4.25;;
56457;SDS011;42360;42.918;12.366;2022-10-26T15:25:54;20.20;;;5.10;;
56457;SDS011;42360;42.918;12.366;2022-10-26T15:28:28;19.38;;;4.80;;
56457;SDS011;42360;42.918;12.366;2022-10-26T15:30:58;19.90;;;4.60;;
56457;SDS011;42360;42.918;12.366;2022-10-26T15:33:24;18.17;;;5.85;;
56457;SDS011;42360;42.918;12.366;2022-10-26T15:36:06;17.17;;;4.60;;
56457;SDS011;42360;42.918;12.366;2022-10-26T15:38:35;12.80;;;4.15;;
56457;SDS011;42360;42.918;12.366;2022-10-26T15:41:05;18.20;;;4.32;;
56457;SDS011;42360;42.918;12.366;2022-10-26T15:43:47;14.43;;;4.57;;
56457;SDS011;42360;42.918;12.366;2022-10-26T15:46:14;21.77;;;3.88;;
56457;SDS011;42360;42.918;12.366;2022-10-26T15:48:40;22.33;;;4.65;;
56457;SDS011;42360;42.918;12.366;2022-10-26T15:51:06;16.15;;;4.70;;
56457;SDS011;42360;42.918;12.366;2022-10-26T15:53:35;16.45;;;4.32;;
56457;SDS011;42360;42.918;12.366;2022-10-26T15:56:01;21.33;;;5.22;;
56457;SDS011;42360;42.918;12.366;2022-10-26T15:58:27;19.13;;;4.03;;
56457;SDS011;42360;42.918;12.366;2022-10-26T16:00:53;16.08;;;4.63;;
56457;SDS011;42360;42.918;12.366;2022-10-26T16:03:20;23.08;;;4.53;;
56457;SDS011;42360;42.918;12.366;2022-10-26T16:05:58;13.63;;;4.20;;
56457;SDS011;42360;42.918;12.366;2022-10-26T16:08:28;23.73;;;5.22;;
56457;SDS011;42360;42.918;12.366;2022-10-26T16:10:55;16.50;;;5.75;;
56457;SDS011;42360;42.918;12.366;2022-10-26T16:13:20;22.58;;;4.55;;
56457;SDS011;42360;42.918;12.366;2022-10-26T16:15:46;15.35;;;4.60;;
56457;SDS011;42360;42.918;12.366;2022-10-26T16:18:12;17.58;;;5.35;;
56457;SDS011;42360;42.918;12.366;2022-10-26T16:20:38;14.95;;;4.47;;
56457;SDS011;42360;42.918;12.366;2022-10-26T16:23:04;19.65;;;4.20;;
56457;SDS011;42360;42.918;12.366;2022-10-26T16:25:33;20.83;;;5.55;;
56457;SDS011;42360;42.918;12.366;2022-10-26T16:28:04;18.50;;;4.50;;
56457;SDS011;42360;42.918;12.366;2022-10-26T16:30:29;18.80;;;4.97;;
56457;SDS011;42360;42.918;12.366;2022-10-26T16:32:55;16.95;;;5.03;;
56457;SDS011;42360;42.918;12.366;2022-10-26T16:35:21;13.40;;;4.85;;
56457;SDS011;42360;42.918;12.366;2022-10-26T16:37:46;14.38;;;4.85;;
56457;SDS011;42360;42.918;12.366;2022-10-26T16:40:12;16.42;;;4.55;;
56457;SDS011;42360;42.918;12.366;2022-10-26T16:42:38;17.15;;;4.65;;
56457;SDS011;42360;42.918;12.366;2022-10-26T16:45:11;18.85;;;4.53;;
56457;SDS011;42360;42.918;12.366;2022-10-26T16:47:38;17.75;;;4.50;;